Volkermarkt, Austria
Current Conditions -  °F | °C
As of 4:50 AM on Saturday 22 Nov 2014 (Local Time) from LOWK Reporting Station
Broken Clouds Broken Clouds  
Wind Chill: 41°   Ceiling: 1500
Heat Index: 41°   Visibility: 6mi
Dew Point: 37°   Wind: 1mph
Humidity: 87%   Direction: NA
Pressure: 30.24"   Gusts: NA
Location:  46.66°N, 14.63°E
Report Text: LOWK 220250Z VRB01KT 9999 FEW012 BKN015 05/03 Q1024 TEMPO BKN014
Loading
Personal Weather Stations






























Interactive Weather Map New forecast layout! Learn more

10-Day Weather Forecast

Advertisements
Track Severe Weather on mobile